sensor_id;sensor_type;location;lat;lon;timestamp;temperature;humidity
75368;DHT22;63954;51.948;5.888;2023-02-01T00:02:08;5.41;75.95
75368;DHT22;63954;51.948;5.888;2023-02-01T00:04:36;5.41;75.84
75368;DHT22;63954;51.948;5.888;2023-02-01T00:07:03;5.41;75.62
75368;DHT22;63954;51.948;5.888;2023-02-01T00:09:30;5.41;75.40
75368;DHT22;63954;51.948;5.888;2023-02-01T00:11:57;5.42;75.12
75368;DHT22;63954;51.948;5.888;2023-02-01T00:14:27;5.42;75.00
75368;DHT22;63954;51.948;5.888;2023-02-01T00:16:56;5.43;74.82
75368;DHT22;63954;51.948;5.888;2023-02-01T00:19:23;5.43;74.59
75368;DHT22;63954;51.948;5.888;2023-02-01T00:21:50;5.43;74.57
75368;DHT22;63954;51.948;5.888;2023-02-01T00:24:17;5.45;74.39
75368;DHT22;63954;51.948;5.888;2023-02-01T00:26:45;5.46;74.23
75368;DHT22;63954;51.948;5.888;2023-02-01T00:29:13;5.46;74.11
75368;DHT22;63954;51.948;5.888;2023-02-01T00:31:41;5.47;74.07
75368;DHT22;63954;51.948;5.888;2023-02-01T00:34:13;5.48;74.00
75368;DHT22;63954;51.948;5.888;2023-02-01T00:36:40;5.47;74.01
75368;DHT22;63954;51.948;5.888;2023-02-01T00:39:08;5.49;73.95
75368;DHT22;63954;51.948;5.888;2023-02-01T00:41:36;5.51;74.02
75368;DHT22;63954;51.948;5.888;2023-02-01T00:44:03;5.51;74.02
75368;DHT22;63954;51.948;5.888;2023-02-01T00:46:31;5.50;74.06
75368;DHT22;63954;51.948;5.888;2023-02-01T00:48:58;5.51;74.06
75368;DHT22;63954;51.948;5.888;2023-02-01T00:51:28;5.50;74.07
75368;DHT22;63954;51.948;5.888;2023-02-01T00:53:56;5.50;74.07
75368;DHT22;63954;51.948;5.888;2023-02-01T00:56:23;5.50;74.13
75368;DHT22;63954;51.948;5.888;2023-02-01T00:58:50;5.54;74.23
75368;DHT22;63954;51.948;5.888;2023-02-01T01:01:19;5.56;74.23
75368;DHT22;63954;51.948;5.888;2023-02-01T01:03:47;5.59;74.22
75368;DHT22;63954;51.948;5.888;2023-02-01T01:06:17;5.56;74.27
75368;DHT22;63954;51.948;5.888;2023-02-01T01:08:47;5.55;74.45
75368;DHT22;63954;51.948;5.888;2023-02-01T01:11:16;5.52;74.60
75368;DHT22;63954;51.948;5.888;2023-02-01T01:13:46;5.51;74.70
75368;DHT22;63954;51.948;5.888;2023-02-01T01:16:13;5.49;74.85
75368;DHT22;63954;51.948;5.888;2023-02-01T01:18:42;5.46;74.81
75368;DHT22;63954;51.948;5.888;2023-02-01T01:21:12;5.40;74.95
75368;DHT22;63954;51.948;5.888;2023-02-01T01:23:39;5.38;75.18
75368;DHT22;63954;51.948;5.888;2023-02-01T01:26:15;5.34;75.29
75368;DHT22;63954;51.948;5.888;2023-02-01T01:28:42;5.31;75.54
75368;DHT22;63954;51.948;5.888;2023-02-01T01:31:10;5.27;75.62
75368;DHT22;63954;51.948;5.888;2023-02-01T01:33:38;5.27;75.71
75368;DHT22;63954;51.948;5.888;2023-02-01T01:36:06;5.28;75.87
75368;DHT22;63954;51.948;5.888;2023-02-01T01:38:35;5.31;75.92
75368;DHT22;63954;51.948;5.888;2023-02-01T01:41:03;5.35;75.88
75368;DHT22;63954;51.948;5.888;2023-02-01T01:43:47;5.39;75.79
75368;DHT22;63954;51.948;5.888;2023-02-01T01:46:17;5.42;75.86
75368;DHT22;63954;51.948;5.888;2023-02-01T01:48:46;5.48;75.73
75368;DHT22;63954;51.948;5.888;2023-02-01T01:51:17;5.49;75.75
75368;DHT22;63954;51.948;5.888;2023-02-01T01:53:50;5.46;75.73
75368;DHT22;63954;51.948;5.888;2023-02-01T01:56:19;5.41;75.86
75368;DHT22;63954;51.948;5.888;2023-02-01T01:58:48;5.37;75.89
75368;DHT22;63954;51.948;5.888;2023-02-01T02:01:16;5.35;76.02
75368;DHT22;63954;51.948;5.888;2023-02-01T02:03:44;5.35;76.03
75368;DHT22;63954;51.948;5.888;2023-02-01T02:06:19;5.36;76.02
75368;DHT22;63954;51.948;5.888;2023-02-01T02:08:48;5.34;76.02
75368;DHT22;63954;51.948;5.888;2023-02-01T02:11:16;5.34;75.95
75368;DHT22;63954;51.948;5.888;2023-02-01T02:13:48;5.34;75.91
75368;DHT22;63954;51.948;5.888;2023-02-01T02:16:27;5.30;75.94
75368;DHT22;63954;51.948;5.888;2023-02-01T02:19:15;5.25;76.03
75368;DHT22;63954;51.948;5.888;2023-02-01T02:22:02;5.22;76.12
75368;DHT22;63954;51.948;5.888;2023-02-01T02:27:46;5.35;75.79
75368;DHT22;63954;51.948;5.888;2023-02-01T02:30:42;5.38;75.63
75368;DHT22;63954;51.948;5.888;2023-02-01T02:33:41;5.37;75.56
75368;DHT22;63954;51.948;5.888;2023-02-01T02:36:17;5.38;75.60
75368;DHT22;63954;51.948;5.888;2023-02-01T02:38:52;5.39;75.57
75368;DHT22;63954;51.948;5.888;2023-02-01T02:41:27;5.40;75.53
75368;DHT22;63954;51.948;5.888;2023-02-01T02:44:21;5.39;75.58
75368;DHT22;63954;51.948;5.888;2023-02-01T02:47:13;5.43;75.54
75368;DHT22;63954;51.948;5.888;2023-02-01T02:50:05;5.47;75.48
75368;DHT22;63954;51.948;5.888;2023-02-01T02:53:00;5.50;75.46
75368;DHT22;63954;51.948;5.888;2023-02-01T02:55:47;5.49;75.46
75368;DHT22;63954;51.948;5.888;2023-02-01T02:58:18;5.49;75.54
75368;DHT22;63954;51.948;5.888;2023-02-01T03:01:04;5.46;75.59
75368;DHT22;63954;51.948;5.888;2023-02-01T03:03:49;5.46;75.60
75368;DHT22;63954;51.948;5.888;2023-02-01T03:06:37;5.47;75.61
75368;DHT22;63954;51.948;5.888;2023-02-01T03:09:10;5.49;75.62
75368;DHT22;63954;51.948;5.888;2023-02-01T03:11:41;5.51;75.54
75368;DHT22;63954;51.948;5.888;2023-02-01T03:14:30;5.55;75.54
75368;DHT22;63954;51.948;5.888;2023-02-01T03:17:03;5.59;75.53
75368;DHT22;63954;51.948;5.888;2023-02-01T03:19:35;5.57;75.57
75368;DHT22;63954;51.948;5.888;2023-02-01T03:22:07;5.57;75.64
75368;DHT22;63954;51.948;5.888;2023-02-01T03:24:38;5.57;75.70
75368;DHT22;63954;51.948;5.888;2023-02-01T03:27:11;5.56;75.73
75368;DHT22;63954;51.948;5.888;2023-02-01T03:29:44;5.55;75.79
75368;DHT22;63954;51.948;5.888;2023-02-01T03:32:12;5.57;75.79
75368;DHT22;63954;51.948;5.888;2023-02-01T03:34:39;5.57;75.86
75368;DHT22;63954;51.948;5.888;2023-02-01T03:37:10;5.59;75.88
75368;DHT22;63954;51.948;5.888;2023-02-01T03:39:41;5.56;76.00
75368;DHT22;63954;51.948;5.888;2023-02-01T03:42:15;5.60;75.95
75368;DHT22;63954;51.948;5.888;2023-02-01T03:44:47;5.64;76.01
75368;DHT22;63954;51.948;5.888;2023-02-01T03:47:20;5.72;75.87
75368;DHT22;63954;51.948;5.888;2023-02-01T03:49:54;5.78;75.78
75368;DHT22;63954;51.948;5.888;2023-02-01T03:52:28;5.84;75.70
75368;DHT22;63954;51.948;5.888;2023-02-01T03:54:58;5.90;75.60
75368;DHT22;63954;51.948;5.888;2023-02-01T03:57:29;5.94;75.48
75368;DHT22;63954;51.948;5.888;2023-02-01T04:00:05;5.95;75.39
75368;DHT22;63954;51.948;5.888;2023-02-01T04:02:39;5.86;75.53
75368;DHT22;63954;51.948;5.888;2023-02-01T04:05:08;5.75;75.79
75368;DHT22;63954;51.948;5.888;2023-02-01T04:07:37;5.64;75.99
75368;DHT22;63954;51.948;5.888;2023-02-01T04:10:05;5.57;76.17
75368;DHT22;63954;51.948;5.888;2023-02-01T04:12:32;5.48;76.42
75368;DHT22;63954;51.948;5.888;2023-02-01T04:14:59;5.42;76.57
75368;DHT22;63954;51.948;5.888;2023-02-01T04:17:27;5.37;76.70
75368;DHT22;63954;51.948;5.888;2023-02-01T04:19:54;5.33;76.89
75368;DHT22;63954;51.948;5.888;2023-02-01T04:22:21;5.28;77.03
75368;DHT22;63954;51.948;5.888;2023-02-01T04:24:50;5.30;77.19
75368;DHT22;63954;51.948;5.888;2023-02-01T04:27:17;5.37;77.11
75368;DHT22;63954;51.948;5.888;2023-02-01T04:29:44;5.41;76.99
75368;DHT22;63954;51.948;5.888;2023-02-01T04:32:12;5.43;76.92
75368;DHT22;63954;51.948;5.888;2023-02-01T04:34:39;5.43;76.95
75368;DHT22;63954;51.948;5.888;2023-02-01T04:37:06;5.47;76.84
75368;DHT22;63954;51.948;5.888;2023-02-01T04:39:33;5.57;76.77
75368;DHT22;63954;51.948;5.888;2023-02-01T04:42:02;5.68;76.50
75368;DHT22;63954;51.948;5.888;2023-02-01T04:44:29;5.83;76.24
75368;DHT22;63954;51.948;5.888;2023-02-01T04:46:56;5.97;75.94
75368;DHT22;63954;51.948;5.888;2023-02-01T04:49:24;6.08;75.63
75368;DHT22;63954;51.948;5.888;2023-02-01T04:51:52;6.20;75.38
75368;DHT22;63954;51.948;5.888;2023-02-01T04:54:19;6.28;75.04
75368;DHT22;63954;51.948;5.888;2023-02-01T04:56:47;6.34;74.83
75368;DHT22;63954;51.948;5.888;2023-02-01T04:59:15;6.41;74.55
75368;DHT22;63954;51.948;5.888;2023-02-01T05:01:42;6.50;74.35
75368;DHT22;63954;51.948;5.888;2023-02-01T05:04:09;6.56;74.18
75368;DHT22;63954;51.948;5.888;2023-02-01T05:06:37;6.65;73.95
75368;DHT22;63954;51.948;5.888;2023-02-01T05:09:04;6.69;73.83
75368;DHT22;63954;51.948;5.888;2023-02-01T05:11:31;6.71;73.77
75368;DHT22;63954;51.948;5.888;2023-02-01T05:14:17;6.73;73.62
75368;DHT22;63954;51.948;5.888;2023-02-01T05:16:44;6.79;73.64
75368;DHT22;63954;51.948;5.888;2023-02-01T05:19:11;6.84;73.55
75368;DHT22;63954;51.948;5.888;2023-02-01T05:21:38;6.85;73.38
75368;DHT22;63954;51.948;5.888;2023-02-01T05:24:07;6.85;73.22
75368;DHT22;63954;51.948;5.888;2023-02-01T05:26:40;6.86;73.06
75368;DHT22;63954;51.948;5.888;2023-02-01T05:29:08;6.86;72.87
75368;DHT22;63954;51.948;5.888;2023-02-01T05:31:37;6.89;72.96
75368;DHT22;63954;51.948;5.888;2023-02-01T05:34:05;6.94;72.76
75368;DHT22;63954;51.948;5.888;2023-02-01T05:36:32;6.97;72.74
75368;DHT22;63954;51.948;5.888;2023-02-01T05:38:59;7.00;72.67
75368;DHT22;63954;51.948;5.888;2023-02-01T05:41:26;7.02;72.58
75368;DHT22;63954;51.948;5.888;2023-02-01T05:43:53;7.04;72.54
75368;DHT22;63954;51.948;5.888;2023-02-01T05:46:21;7.09;72.38
75368;DHT22;63954;51.948;5.888;2023-02-01T05:48:49;7.11;72.38
75368;DHT22;63954;51.948;5.888;2023-02-01T05:51:16;7.14;72.32
75368;DHT22;63954;51.948;5.888;2023-02-01T05:53:44;7.16;72.31
75368;DHT22;63954;51.948;5.888;2023-02-01T05:56:11;7.18;72.16
75368;DHT22;63954;51.948;5.888;2023-02-01T05:58:38;7.19;72.20
75368;DHT22;63954;51.948;5.888;2023-02-01T06:01:05;7.20;71.95
75368;DHT22;63954;51.948;5.888;2023-02-01T06:03:32;7.23;71.93
75368;DHT22;63954;51.948;5.888;2023-02-01T06:06:01;7.22;71.85
75368;DHT22;63954;51.948;5.888;2023-02-01T06:08:28;7.20;71.86
75368;DHT22;63954;51.948;5.888;2023-02-01T06:10:59;7.23;71.90
75368;DHT22;63954;51.948;5.888;2023-02-01T06:13:27;7.24;71.68
75368;DHT22;63954;51.948;5.888;2023-02-01T06:15:54;7.26;71.64
75368;DHT22;63954;51.948;5.888;2023-02-01T06:18:23;7.26;71.61
75368;DHT22;63954;51.948;5.888;2023-02-01T06:20:54;7.28;71.55
75368;DHT22;63954;51.948;5.888;2023-02-01T06:23:23;7.28;71.42
75368;DHT22;63954;51.948;5.888;2023-02-01T06:25:51;7.30;71.48
75368;DHT22;63954;51.948;5.888;2023-02-01T06:28:19;7.30;71.46
75368;DHT22;63954;51.948;5.888;2023-02-01T06:30:46;7.31;71.45
75368;DHT22;63954;51.948;5.888;2023-02-01T06:33:14;7.35;71.48
75368;DHT22;63954;51.948;5.888;2023-02-01T06:35:41;7.35;71.44
75368;DHT22;63954;51.948;5.888;2023-02-01T06:38:10;7.35;71.41
75368;DHT22;63954;51.948;5.888;2023-02-01T06:40:40;7.35;71.27
75368;DHT22;63954;51.948;5.888;2023-02-01T06:43:08;7.37;71.32
75368;DHT22;63954;51.948;5.888;2023-02-01T06:45:35;7.38;71.29
75368;DHT22;63954;51.948;5.888;2023-02-01T06:48:02;7.40;71.26
75368;DHT22;63954;51.948;5.888;2023-02-01T06:50:29;7.40;71.13
75368;DHT22;63954;51.948;5.888;2023-02-01T06:52:56;7.40;71.10
75368;DHT22;63954;51.948;5.888;2023-02-01T06:55:24;7.42;71.13
75368;DHT22;63954;51.948;5.888;2023-02-01T06:57:54;7.45;71.09
75368;DHT22;63954;51.948;5.888;2023-02-01T07:00:22;7.42;71.08
75368;DHT22;63954;51.948;5.888;2023-02-01T07:02:50;7.42;71.10
75368;DHT22;63954;51.948;5.888;2023-02-01T07:05:17;7.43;71.03
75368;DHT22;63954;51.948;5.888;2023-02-01T07:07:45;7.45;70.97
75368;DHT22;63954;51.948;5.888;2023-02-01T07:10:12;7.45;71.00
75368;DHT22;63954;51.948;5.888;2023-02-01T07:12:39;7.44;70.95
75368;DHT22;63954;51.948;5.888;2023-02-01T07:15:08;7.45;71.02
75368;DHT22;63954;51.948;5.888;2023-02-01T07:17:36;7.45;71.06
75368;DHT22;63954;51.948;5.888;2023-02-01T07:20:04;7.43;71.16
75368;DHT22;63954;51.948;5.888;2023-02-01T07:22:31;7.40;71.20
75368;DHT22;63954;51.948;5.888;2023-02-01T07:24:58;7.34;71.23
75368;DHT22;63954;51.948;5.888;2023-02-01T07:27:25;7.30;71.43
75368;DHT22;63954;51.948;5.888;2023-02-01T07:29:53;7.24;71.48
75368;DHT22;63954;51.948;5.888;2023-02-01T07:32:22;7.20;71.61
75368;DHT22;63954;51.948;5.888;2023-02-01T07:34:50;7.19;71.54
75368;DHT22;63954;51.948;5.888;2023-02-01T07:37:17;7.10;71.82
75368;DHT22;63954;51.948;5.888;2023-02-01T07:39:44;7.07;71.86
75368;DHT22;63954;51.948;5.888;2023-02-01T07:42:11;7.11;71.86
75368;DHT22;63954;51.948;5.888;2023-02-01T07:44:38;7.15;71.85
75368;DHT22;63954;51.948;5.888;2023-02-01T07:47:06;7.20;71.81
75368;DHT22;63954;51.948;5.888;2023-02-01T07:49:34;7.20;71.72
75368;DHT22;63954;51.948;5.888;2023-02-01T07:52:01;7.24;71.72
75368;DHT22;63954;51.948;5.888;2023-02-01T07:54:29;7.26;71.70
75368;DHT22;63954;51.948;5.888;2023-02-01T07:56:56;7.23;71.64
75368;DHT22;63954;51.948;5.888;2023-02-01T07:59:23;7.14;71.79
75368;DHT22;63954;51.948;5.888;2023-02-01T08:01:50;7.08;71.95
75368;DHT22;63954;51.948;5.888;2023-02-01T08:04:16;7.01;72.09
75368;DHT22;63954;51.948;5.888;2023-02-01T08:06:45;6.99;72.23
75368;DHT22;63954;51.948;5.888;2023-02-01T08:09:12;6.99;72.33
75368;DHT22;63954;51.948;5.888;2023-02-01T08:11:43;7.02;72.26
75368;DHT22;63954;51.948;5.888;2023-02-01T08:14:10;7.05;72.15
75368;DHT22;63954;51.948;5.888;2023-02-01T08:16:38;7.09;72.07
75368;DHT22;63954;51.948;5.888;2023-02-01T08:19:05;7.05;72.13
75368;DHT22;63954;51.948;5.888;2023-02-01T08:21:32;7.08;72.14
75368;DHT22;63954;51.948;5.888;2023-02-01T08:24:06;7.08;72.07
75368;DHT22;63954;51.948;5.888;2023-02-01T08:26:33;7.04;72.12
75368;DHT22;63954;51.948;5.888;2023-02-01T08:29:03;7.05;72.27
75368;DHT22;63954;51.948;5.888;2023-02-01T08:31:31;7.08;72.13
75368;DHT22;63954;51.948;5.888;2023-02-01T08:34:00;7.14;72.00
75368;DHT22;63954;51.948;5.888;2023-02-01T08:36:30;7.23;71.81
75368;DHT22;63954;51.948;5.888;2023-02-01T08:38:58;7.22;71.62
75368;DHT22;63954;51.948;5.888;2023-02-01T08:41:28;7.25;71.67
75368;DHT22;63954;51.948;5.888;2023-02-01T08:43:56;7.28;71.53
75368;DHT22;63954;51.948;5.888;2023-02-01T08:46:24;7.29;71.47
75368;DHT22;63954;51.948;5.888;2023-02-01T08:48:51;7.35;71.51
75368;DHT22;63954;51.948;5.888;2023-02-01T08:54:45;7.73;70.78
75368;DHT22;63954;51.948;5.888;2023-02-01T08:57:14;7.93;70.45
75368;DHT22;63954;51.948;5.888;2023-02-01T08:59:41;8.19;70.04
75368;DHT22;63954;51.948;5.888;2023-02-01T09:02:12;8.39;69.55
75368;DHT22;63954;51.948;5.888;2023-02-01T09:04:39;8.50;69.15
75368;DHT22;63954;51.948;5.888;2023-02-01T09:07:07;8.63;68.83
75368;DHT22;63954;51.948;5.888;2023-02-01T09:09:40;8.68;68.49
75368;DHT22;63954;51.948;5.888;2023-02-01T09:12:31;8.85;68.13
75368;DHT22;63954;51.948;5.888;2023-02-01T09:15:08;9.00;67.89
75368;DHT22;63954;51.948;5.888;2023-02-01T09:17:44;8.97;67.82
75368;DHT22;63954;51.948;5.888;2023-02-01T09:20:14;8.82;67.88
75368;DHT22;63954;51.948;5.888;2023-02-01T09:22:47;8.67;68.08
75368;DHT22;63954;51.948;5.888;2023-02-01T09:25:27;8.57;68.27
75368;DHT22;63954;51.948;5.888;2023-02-01T09:28:07;8.70;68.20
75368;DHT22;63954;51.948;5.888;2023-02-01T09:30:38;8.74;68.11
75368;DHT22;63954;51.948;5.888;2023-02-01T09:33:05;8.80;67.96
75368;DHT22;63954;51.948;5.888;2023-02-01T09:35:32;8.88;67.71
75368;DHT22;63954;51.948;5.888;2023-02-01T09:37:59;8.95;67.57
75368;DHT22;63954;51.948;5.888;2023-02-01T09:40:26;9.08;67.32
75368;DHT22;63954;51.948;5.888;2023-02-01T09:43:04;9.19;66.99
75368;DHT22;63954;51.948;5.888;2023-02-01T09:45:40;9.33;66.83
75368;DHT22;63954;51.948;5.888;2023-02-01T09:48:13;9.52;66.40
75368;DHT22;63954;51.948;5.888;2023-02-01T09:50:45;9.63;66.30
75368;DHT22;63954;51.948;5.888;2023-02-01T09:53:18;9.61;66.08
75368;DHT22;63954;51.948;5.888;2023-02-01T09:55:49;9.60;65.89
75368;DHT22;63954;51.948;5.888;2023-02-01T09:58:20;9.56;65.32
75368;DHT22;63954;51.948;5.888;2023-02-01T10:00:52;9.55;65.75
75368;DHT22;63954;51.948;5.888;2023-02-01T10:03:20;9.57;65.73
75368;DHT22;63954;51.948;5.888;2023-02-01T10:06:24;9.47;65.42
75368;DHT22;63954;51.948;5.888;2023-02-01T10:09:04;9.38;65.75
75368;DHT22;63954;51.948;5.888;2023-02-01T10:11:42;9.37;66.07
75368;DHT22;63954;51.948;5.888;2023-02-01T10:14:34;9.30;66.31
75368;DHT22;63954;51.948;5.888;2023-02-01T10:17:09;9.20;66.49
75368;DHT22;63954;51.948;5.888;2023-02-01T10:19:51;9.15;66.49
75368;DHT22;63954;51.948;5.888;2023-02-01T10:22:23;9.07;66.52
75368;DHT22;63954;51.948;5.888;2023-02-01T10:24:55;9.06;66.88
75368;DHT22;63954;51.948;5.888;2023-02-01T10:27:30;9.07;66.96
75368;DHT22;63954;51.948;5.888;2023-02-01T10:30:12;9.05;67.02
75368;DHT22;63954;51.948;5.888;2023-02-01T10:32:41;9.04;67.39
75368;DHT22;63954;51.948;5.888;2023-02-01T10:35:13;8.96;68.29
75368;DHT22;63954;51.948;5.888;2023-02-01T10:37:41;8.89;68.69
75368;DHT22;63954;51.948;5.888;2023-02-01T10:40:16;8.88;69.24
75368;DHT22;63954;51.948;5.888;2023-02-01T10:42:44;8.83;69.52
75368;DHT22;63954;51.948;5.888;2023-02-01T10:45:17;8.76;69.76
75368;DHT22;63954;51.948;5.888;2023-02-01T10:47:45;8.68;70.05
75368;DHT22;63954;51.948;5.888;2023-02-01T10:50:19;8.61;70.65
75368;DHT22;63954;51.948;5.888;2023-02-01T10:52:54;8.52;71.14
75368;DHT22;63954;51.948;5.888;2023-02-01T10:55:38;8.41;71.85
75368;DHT22;63954;51.948;5.888;2023-02-01T10:58:07;8.35;72.36
75368;DHT22;63954;51.948;5.888;2023-02-01T11:00:44;8.30;72.93
75368;DHT22;63954;51.948;5.888;2023-02-01T11:03:31;8.26;73.50
75368;DHT22;63954;51.948;5.888;2023-02-01T11:05:59;8.23;73.57
75368;DHT22;63954;51.948;5.888;2023-02-01T11:08:27;8.18;73.85
75368;DHT22;63954;51.948;5.888;2023-02-01T11:10:59;8.22;73.61
75368;DHT22;63954;51.948;5.888;2023-02-01T11:13:31;8.28;73.44
75368;DHT22;63954;51.948;5.888;2023-02-01T11:16:04;8.32;73.22
75368;DHT22;63954;51.948;5.888;2023-02-01T11:18:35;8.36;72.95
75368;DHT22;63954;51.948;5.888;2023-02-01T11:21:03;8.37;72.60
75368;DHT22;63954;51.948;5.888;2023-02-01T11:23:31;8.33;72.49
75368;DHT22;63954;51.948;5.888;2023-02-01T11:26:09;8.38;72.37
75368;DHT22;63954;51.948;5.888;2023-02-01T11:28:39;8.39;72.19
75368;DHT22;63954;51.948;5.888;2023-02-01T11:31:11;8.44;72.04
75368;DHT22;63954;51.948;5.888;2023-02-01T11:33:45;8.49;71.78
75368;DHT22;63954;51.948;5.888;2023-02-01T11:36:16;8.52;71.51
75368;DHT22;63954;51.948;5.888;2023-02-01T11:38:45;8.51;71.43
75368;DHT22;63954;51.948;5.888;2023-02-01T11:41:14;8.49;71.56
75368;DHT22;63954;51.948;5.888;2023-02-01T11:43:51;8.50;71.93
75368;DHT22;63954;51.948;5.888;2023-02-01T11:46:23;8.46;72.28
75368;DHT22;63954;51.948;5.888;2023-02-01T11:48:53;8.42;72.65
75368;DHT22;63954;51.948;5.888;2023-02-01T11:51:32;8.36;72.92
75368;DHT22;63954;51.948;5.888;2023-02-01T11:54:13;8.33;73.04
75368;DHT22;63954;51.948;5.888;2023-02-01T11:56:53;8.36;73.05
75368;DHT22;63954;51.948;5.888;2023-02-01T11:59:34;8.44;72.78
75368;DHT22;63954;51.948;5.888;2023-02-01T12:02:20;8.55;72.60
75368;DHT22;63954;51.948;5.888;2023-02-01T12:05:13;8.62;71.98
75368;DHT22;63954;51.948;5.888;2023-02-01T12:07:58;8.65;71.93
75368;DHT22;63954;51.948;5.888;2023-02-01T12:10:38;8.68;71.76
75368;DHT22;63954;51.948;5.888;2023-02-01T12:13:17;8.75;71.42
75368;DHT22;63954;51.948;5.888;2023-02-01T12:16:00;8.88;71.05
75368;DHT22;63954;51.948;5.888;2023-02-01T12:21:34;8.94;70.71
75368;DHT22;63954;51.948;5.888;2023-02-01T12:24:29;9.02;70.59
75368;DHT22;63954;51.948;5.888;2023-02-01T12:30:07;9.23;70.13
75368;DHT22;63954;51.948;5.888;2023-02-01T12:32:51;9.34;69.91
75368;DHT22;63954;51.948;5.888;2023-02-01T12:35:44;9.34;69.61
75368;DHT22;63954;51.948;5.888;2023-02-01T12:38:52;9.42;69.42
75368;DHT22;63954;51.948;5.888;2023-02-01T12:41:37;9.50;69.07
75368;DHT22;63954;51.948;5.888;2023-02-01T12:44:11;9.53;68.82
75368;DHT22;63954;51.948;5.888;2023-02-01T12:46:43;9.57;68.74
75368;DHT22;63954;51.948;5.888;2023-02-01T12:49:14;9.59;68.24
75368;DHT22;63954;51.948;5.888;2023-02-01T12:51:50;9.56;68.40
75368;DHT22;63954;51.948;5.888;2023-02-01T12:54:20;9.55;68.43
75368;DHT22;63954;51.948;5.888;2023-02-01T12:56:56;9.53;68.35
75368;DHT22;63954;51.948;5.888;2023-02-01T12:59:33;9.53;68.30
75368;DHT22;63954;51.948;5.888;2023-02-01T13:02:06;9.54;68.20
75368;DHT22;63954;51.948;5.888;2023-02-01T13:04:36;9.60;68.23
75368;DHT22;63954;51.948;5.888;2023-02-01T13:07:11;9.61;67.97
75368;DHT22;63954;51.948;5.888;2023-02-01T13:09:43;9.62;67.78
75368;DHT22;63954;51.948;5.888;2023-02-01T13:12:16;9.57;67.94
75368;DHT22;63954;51.948;5.888;2023-02-01T13:14:48;9.52;67.94
75368;DHT22;63954;51.948;5.888;2023-02-01T13:17:19;9.47;67.92
75368;DHT22;63954;51.948;5.888;2023-02-01T13:19:52;9.42;68.08
75368;DHT22;63954;51.948;5.888;2023-02-01T13:22:26;9.40;67.84
75368;DHT22;63954;51.948;5.888;2023-02-01T13:24:57;9.39;67.97
75368;DHT22;63954;51.948;5.888;2023-02-01T13:27:27;9.35;67.91
75368;DHT22;63954;51.948;5.888;2023-02-01T13:30:01;9.38;68.01
75368;DHT22;63954;51.948;5.888;2023-02-01T13:32:46;9.41;67.91
75368;DHT22;63954;51.948;5.888;2023-02-01T13:35:39;9.47;67.73
75368;DHT22;63954;51.948;5.888;2023-02-01T13:38:33;9.46;67.63
75368;DHT22;63954;51.948;5.888;2023-02-01T13:41:15;9.46;67.59
75368;DHT22;63954;51.948;5.888;2023-02-01T13:43:53;9.41;67.71
75368;DHT22;63954;51.948;5.888;2023-02-01T13:46:22;9.45;67.78
75368;DHT22;63954;51.948;5.888;2023-02-01T13:48:52;9.44;67.68
75368;DHT22;63954;51.948;5.888;2023-02-01T13:51:33;9.49;67.84
75368;DHT22;63954;51.948;5.888;2023-02-01T13:54:03;9.46;67.75
75368;DHT22;63954;51.948;5.888;2023-02-01T13:56:40;9.42;67.73
75368;DHT22;63954;51.948;5.888;2023-02-01T13:59:36;9.41;67.53
75368;DHT22;63954;51.948;5.888;2023-02-01T14:06:05;9.41;67.78
75368;DHT22;63954;51.948;5.888;2023-02-01T14:11:38;9.36;67.94
75368;DHT22;63954;51.948;5.888;2023-02-01T14:17:39;9.45;68.02
75368;DHT22;63954;51.948;5.888;2023-02-01T14:23:29;9.59;67.95
75368;DHT22;63954;51.948;5.888;2023-02-01T14:26:12;9.60;67.63
75368;DHT22;63954;51.948;5.888;2023-02-01T14:28:49;9.60;67.33
75368;DHT22;63954;51.948;5.888;2023-02-01T14:31:44;9.60;67.24
75368;DHT22;63954;51.948;5.888;2023-02-01T14:34:18;9.60;67.33
75368;DHT22;63954;51.948;5.888;2023-02-01T14:36:50;9.57;67.21
75368;DHT22;63954;51.948;5.888;2023-02-01T14:42:05;9.60;67.19
75368;DHT22;63954;51.948;5.888;2023-02-01T14:44:42;9.54;67.10
75368;DHT22;63954;51.948;5.888;2023-02-01T14:47:31;9.50;67.17
75368;DHT22;63954;51.948;5.888;2023-02-01T14:50:33;9.45;67.33
75368;DHT22;63954;51.948;5.888;2023-02-01T14:53:17;9.39;67.78
75368;DHT22;63954;51.948;5.888;2023-02-01T14:55:48;9.40;67.87
75368;DHT22;63954;51.948;5.888;2023-02-01T14:58:21;9.46;67.81
75368;DHT22;63954;51.948;5.888;2023-02-01T15:00:54;9.46;67.86
75368;DHT22;63954;51.948;5.888;2023-02-01T15:03:36;9.48;67.79
75368;DHT22;63954;51.948;5.888;2023-02-01T15:06:19;9.53;67.73
75368;DHT22;63954;51.948;5.888;2023-02-01T15:08:49;9.54;67.65
75368;DHT22;63954;51.948;5.888;2023-02-01T15:11:20;9.52;67.72
75368;DHT22;63954;51.948;5.888;2023-02-01T15:13:49;9.52;67.77
75368;DHT22;63954;51.948;5.888;2023-02-01T15:16:21;9.49;67.70
75368;DHT22;63954;51.948;5.888;2023-02-01T15:18:49;9.49;67.70
75368;DHT22;63954;51.948;5.888;2023-02-01T15:21:22;9.42;67.87
75368;DHT22;63954;51.948;5.888;2023-02-01T15:23:49;9.41;67.91
75368;DHT22;63954;51.948;5.888;2023-02-01T15:26:27;9.37;68.01
75368;DHT22;63954;51.948;5.888;2023-02-01T15:28:58;9.37;68.25
75368;DHT22;63954;51.948;5.888;2023-02-01T15:31:34;9.39;68.69
75368;DHT22;63954;51.948;5.888;2023-02-01T15:34:02;9.32;69.19
75368;DHT22;63954;51.948;5.888;2023-02-01T15:36:29;9.24;69.59
75368;DHT22;63954;51.948;5.888;2023-02-01T15:39:19;9.24;69.47
75368;DHT22;63954;51.948;5.888;2023-02-01T15:41:50;9.21;69.49
75368;DHT22;63954;51.948;5.888;2023-02-01T15:44:18;9.22;69.39
75368;DHT22;63954;51.948;5.888;2023-02-01T15:46:50;9.25;69.27
75368;DHT22;63954;51.948;5.888;2023-02-01T15:49:24;9.25;69.08
75368;DHT22;63954;51.948;5.888;2023-02-01T15:51:54;9.26;69.00
75368;DHT22;63954;51.948;5.888;2023-02-01T15:54:25;9.25;68.94
75368;DHT22;63954;51.948;5.888;2023-02-01T15:56:54;9.26;69.01
75368;DHT22;63954;51.948;5.888;2023-02-01T15:59:24;9.24;69.03
75368;DHT22;63954;51.948;5.888;2023-02-01T16:01:56;9.25;69.06
75368;DHT22;63954;51.948;5.888;2023-02-01T16:04:25;9.26;69.10
75368;DHT22;63954;51.948;5.888;2023-02-01T16:06:57;9.29;69.09
75368;DHT22;63954;51.948;5.888;2023-02-01T16:09:36;9.32;69.04
75368;DHT22;63954;51.948;5.888;2023-02-01T16:12:28;9.32;69.07
75368;DHT22;63954;51.948;5.888;2023-02-01T16:14:56;9.33;69.08
75368;DHT22;63954;51.948;5.888;2023-02-01T16:17:24;9.31;69.15
75368;DHT22;63954;51.948;5.888;2023-02-01T16:19:52;9.33;69.07
75368;DHT22;63954;51.948;5.888;2023-02-01T16:22:19;9.35;68.81
75368;DHT22;63954;51.948;5.888;2023-02-01T16:24:47;9.41;68.72
75368;DHT22;63954;51.948;5.888;2023-02-01T16:27:15;9.44;68.66
75368;DHT22;63954;51.948;5.888;2023-02-01T16:29:42;9.46;68.62
75368;DHT22;63954;51.948;5.888;2023-02-01T16:32:14;9.48;68.62
75368;DHT22;63954;51.948;5.888;2023-02-01T16:34:44;9.50;68.62
75368;DHT22;63954;51.948;5.888;2023-02-01T16:37:13;9.50;68.70
75368;DHT22;63954;51.948;5.888;2023-02-01T16:39:41;9.46;68.84
75368;DHT22;63954;51.948;5.888;2023-02-01T16:42:13;9.44;68.87
75368;DHT22;63954;51.948;5.888;2023-02-01T16:44:41;9.41;68.89
75368;DHT22;63954;51.948;5.888;2023-02-01T16:47:13;9.38;69.23